createdAt,value
2019-01-02T05:01:21.399Z,92.60
2019-01-02T05:03:43.878Z,92.40
2019-01-02T05:06:06.401Z,92.40
2019-01-02T05:08:28.959Z,92.40
2019-01-02T05:10:51.442Z,92.30
2019-01-02T05:13:14.023Z,92.00
2019-01-02T06:01:12.163Z,90.30
2019-01-02T06:03:34.635Z,90.30
2019-01-02T06:05:57.119Z,90.10
2019-01-02T06:08:19.723Z,90.00
2019-01-02T06:10:42.167Z,90.00
2019-01-02T06:13:04.606Z,89.80
2019-01-02T07:01:07.663Z,87.60
2019-01-02T07:03:42.562Z,87.40
2019-01-02T07:06:18.134Z,86.80
2019-01-02T07:08:52.838Z,87.10
2019-01-02T07:11:27.770Z,87.70
2019-01-02T07:14:00.310Z,88.10
2019-01-02T08:02:44.422Z,86.30
2019-01-02T08:05:30.433Z,85.60
2019-01-02T08:08:43.683Z,85.50
2019-01-02T08:11:52.234Z,85.50
2019-01-02T08:15:03.008Z,85.50
2019-01-02T09:00:21.340Z,87.50
2019-01-02T09:02:56.094Z,87.10
2019-01-02T09:05:31.263Z,86.90
2019-01-02T09:08:06.176Z,86.20
2019-01-02T09:10:41.282Z,86.00
2019-01-02T09:13:16.475Z,86.00
2019-01-02T10:02:52.042Z,84.30
2019-01-02T10:05:58.170Z,84.10
2019-01-02T10:09:28.016Z,84.40
2019-01-02T10:12:03.446Z,84.10
2019-01-02T11:02:22.566Z,83.90
2019-01-02T11:05:23.950Z,83.70
2019-01-02T11:07:59.455Z,84.70
2019-01-02T11:10:34.426Z,84.80
2019-01-02T11:13:09.299Z,84.60
2019-01-02T12:01:10.977Z,83.80
2019-01-02T12:03:45.920Z,83.60
2019-01-02T12:06:20.847Z,83.60
2019-01-02T12:08:43.507Z,83.60
2019-01-02T12:11:06.219Z,82.70
2019-01-02T12:13:28.807Z,83.00
2019-01-02T13:00:26.701Z,82.10
2019-01-02T13:03:21.206Z,82.60
2019-01-02T13:10:10.911Z,82.10
2019-01-02T13:12:45.847Z,82.40
2019-01-02T13:42:24.349Z,80.00
2019-01-02T13:44:59.914Z,81.20
2019-01-02T13:47:54.463Z,81.10
2019-01-02T13:50:40.391Z,76.60
2019-01-02T13:53:05.567Z,70.90
2019-01-02T13:55:28.090Z,69.10
2019-01-02T13:57:50.578Z,71.80
2019-01-02T14:00:13.207Z,73.60
2019-01-02T14:02:35.814Z,75.30
2019-01-02T14:04:58.305Z,78.50
2019-01-02T14:07:20.775Z,79.90
2019-01-02T14:09:43.357Z,81.20
2019-01-02T14:12:06.006Z,81.60
2019-01-02T14:14:29.695Z,82.90
2019-01-02T15:01:50.012Z,85.40
2019-01-02T15:04:25.154Z,86.50
2019-01-02T15:07:00.135Z,86.70
2019-01-02T15:09:22.565Z,86.30
2019-01-02T15:11:45.134Z,86.60
2019-01-02T15:14:07.675Z,86.40
2019-01-02T16:02:11.046Z,84.30
2019-01-02T16:04:46.034Z,84.60
2019-01-02T16:07:20.990Z,84.30
2019-01-02T16:09:56.092Z,84.60
2019-01-02T16:12:31.270Z,84.20
2019-01-02T17:02:18.658Z,85.60
2019-01-02T17:04:41.355Z,85.30
2019-01-02T17:07:03.813Z,84.50
2019-01-02T18:17:43.411Z,70.80
2019-01-02T18:20:18.747Z,71.40
2019-01-02T18:22:54.327Z,71.50
2019-01-02T18:25:29.258Z,70.90
2019-01-02T18:27:51.758Z,71.40
2019-01-02T20:01:49.215Z,78.70
2019-01-02T20:04:11.733Z,78.50
2019-01-02T20:06:34.294Z,78.80
2019-01-02T20:09:16.310Z,79.30
2019-01-02T20:11:51.307Z,79.30
2019-01-02T20:14:26.400Z,79.10
2019-01-02T21:01:19.396Z,79.40
2019-01-02T21:03:41.922Z,79.10
2019-01-02T21:06:07.527Z,79.20
2019-01-02T21:08:29.990Z,78.90
2019-01-02T21:10:52.426Z,78.80
2019-01-02T21:13:14.894Z,77.20
